首页
METAR-TAF:

METAR-TAF

机场 :

Buochs, 瑞士

纬度: 46-58-28N, 经度: 8-23-49E, 海拔: 449米

当前天气观测

该预报发布于20分钟前的09:20 UTC
风速6节,风向,在东转东北西转西南之间变化
温度 16°C
湿度 77%
气压 1009 hPa
能见度10公里或以上
散云层高于11000英尺
散云层高于13000英尺

METAR: LSZC 150920Z 18006KT 070V240 9999 SCT110 SCT130 16/12 Q1009

时间: 11:40 (09:40 UTC)

预报

该预报发布于1小时和15分钟前的08:25 UTC
预报有效从15日的 09点(UTC)到 15日的 18点(UTC)
风速5节,风向西南
能见度10公里或以上
少量云层高于1000英尺
散云层高于14000英尺
成为
从 15日的 11点(UTC)到 15日的 14点(UTC)
少量云层高于2500英尺
多云层高于6000英尺

TAF: LSZC 150825Z 1509/1518 22005KT 9999 FEW010 SCT140 BECMG 1511/1514 RA FEW025 BKN060

超过4000个机场的气象观测和天气预报(METAR&TAF报告)。

可查询的气象台以黄色和红色小点在地图上表示。

将鼠标移到小点上方,可查看气象台名称。

然后点击查看天气观测和预报。

如需切换地图:点击带黑十字的绿色按钮放大地图;点击带横线的绿色按钮缩小地图;或者点击绿色箭头查看邻近地区的地图。


METAR-TAF: